createdAt,value
2017-11-16T00:00:06.063Z,-0.40
2017-11-16T00:02:34.486Z,-0.50
2017-11-16T00:05:02.165Z,-0.50
2017-11-16T00:07:29.829Z,-0.60
2017-11-16T00:09:57.479Z,-0.70
2017-11-16T00:12:25.097Z,-0.70
2017-11-16T00:14:52.814Z,-0.70
2017-11-16T00:17:20.470Z,-0.70
2017-11-16T00:19:48.108Z,-0.60
2017-11-16T00:22:15.785Z,-0.50
2017-11-16T00:24:43.397Z,-0.50
2017-11-16T00:27:11.055Z,-0.60
2017-11-16T00:29:38.697Z,-0.60
2017-11-16T00:32:07.154Z,-0.50
2017-11-16T00:34:34.791Z,-0.60
2017-11-16T00:37:02.421Z,-0.60
2017-11-16T00:39:30.077Z,-0.60
2017-11-16T00:41:57.713Z,-0.50
2017-11-16T00:44:26.142Z,-0.50
2017-11-16T00:46:53.855Z,-0.50
2017-11-16T00:49:22.245Z,-0.40
2017-11-16T00:51:49.882Z,-0.40
2017-11-16T00:54:17.541Z,-0.30
2017-11-16T00:56:45.163Z,-0.30
2017-11-16T00:59:12.823Z,-0.30
2017-11-16T01:01:40.454Z,-0.30
2017-11-16T01:04:08.134Z,-0.40
2017-11-16T01:06:35.776Z,-0.40
2017-11-16T01:09:03.517Z,-0.40
2017-11-16T01:11:31.910Z,-0.50
2017-11-16T01:13:59.545Z,-0.50
2017-11-16T01:16:27.973Z,-0.50
2017-11-16T01:18:55.595Z,-0.50
2017-11-16T01:21:24.047Z,-0.50
2017-11-16T01:23:51.678Z,-0.50
2017-11-16T01:26:19.380Z,-0.50
2017-11-16T01:28:47.049Z,-0.40
2017-11-16T01:31:15.446Z,-0.50
2017-11-16T01:33:43.104Z,-0.50
2017-11-16T01:36:10.770Z,-0.40
2017-11-16T01:38:38.466Z,-0.50
2017-11-16T01:41:06.131Z,-0.50
2017-11-16T01:43:33.936Z,-0.50
2017-11-16T01:46:02.422Z,-0.40
2017-11-16T01:48:30.834Z,-0.50
2017-11-16T01:50:58.481Z,-0.50
2017-11-16T01:53:26.110Z,-0.50
2017-11-16T01:55:54.536Z,-0.30
2017-11-16T01:58:22.203Z,-0.40
2017-11-16T02:00:49.902Z,-0.50
2017-11-16T02:03:18.354Z,-0.30
2017-11-16T02:05:46.014Z,-0.40
2017-11-16T02:08:13.676Z,-0.40
2017-11-16T02:10:41.360Z,-0.40
2017-11-16T02:13:09.842Z,-0.40
2017-11-16T02:15:38.248Z,-0.40
2017-11-16T02:18:05.876Z,-0.40
2017-11-16T02:20:34.387Z,-0.50
2017-11-16T02:23:02.089Z,-0.50
2017-11-16T02:25:29.846Z,-0.50
2017-11-16T02:27:57.616Z,-0.50
2017-11-16T02:30:25.310Z,-0.50
2017-11-16T02:32:53.812Z,-0.50
2017-11-16T02:35:21.501Z,-0.50
2017-11-16T02:37:49.267Z,-0.40
2017-11-16T02:40:16.980Z,-0.50
2017-11-16T02:42:45.439Z,-0.40
2017-11-16T02:45:13.175Z,-0.40
2017-11-16T02:47:40.907Z,-0.40
2017-11-16T02:50:09.521Z,-0.30
2017-11-16T02:52:37.245Z,-0.30
2017-11-16T02:55:04.950Z,-0.30
2017-11-16T02:57:32.684Z,-0.30
2017-11-16T03:00:00.353Z,-0.30
2017-11-16T03:02:28.080Z,-0.40
2017-11-16T03:04:56.520Z,-0.40
2017-11-16T03:07:24.253Z,-0.40
2017-11-16T03:09:51.948Z,-0.30
2017-11-16T03:12:19.581Z,-0.30
2017-11-16T03:14:47.264Z,-0.20
2017-11-16T03:17:14.901Z,-0.20
2017-11-16T03:19:42.600Z,-0.20
2017-11-16T03:22:10.352Z,-0.20
2017-11-16T03:24:38.020Z,-0.30
2017-11-16T03:27:05.765Z,-0.20
2017-11-16T03:29:33.507Z,-0.20
2017-11-16T03:32:01.185Z,-0.20
2017-11-16T03:34:28.836Z,-0.20
2017-11-16T03:36:56.541Z,-0.20
2017-11-16T03:39:24.984Z,-0.20
2017-11-16T03:41:52.636Z,-0.20
2017-11-16T03:44:20.344Z,-0.20
2017-11-16T03:46:48.776Z,-0.20
2017-11-16T03:49:16.415Z,-0.30
2017-11-16T03:51:44.133Z,-0.20
2017-11-16T03:54:12.657Z,-0.20
2017-11-16T03:56:40.353Z,-0.20
2017-11-16T03:59:08.009Z,-0.20
2017-11-16T04:01:35.638Z,-0.20
2017-11-16T04:04:03.288Z,-0.20
2017-11-16T04:06:30.919Z,-0.10
2017-11-16T04:08:59.366Z,-0.10
2017-11-16T04:11:27.058Z,-0.10
2017-11-16T04:13:55.592Z,-0.10
2017-11-16T04:16:23.272Z,-0.10
2017-11-16T04:18:50.954Z,0.00
2017-11-16T04:21:19.469Z,-0.10
2017-11-16T04:23:47.117Z,-0.20
2017-11-16T04:26:14.781Z,-0.10
2017-11-16T04:28:42.459Z,-0.20
2017-11-16T04:31:10.098Z,-0.20
2017-11-16T04:33:37.880Z,-0.20
2017-11-16T04:36:05.533Z,-0.10
2017-11-16T04:38:33.153Z,0.00
2017-11-16T04:41:01.509Z,0.00
2017-11-16T04:43:29.139Z,-0.10
2017-11-16T04:45:57.767Z,-0.10
2017-11-16T04:48:25.409Z,-0.10
2017-11-16T04:50:53.033Z,-0.10
2017-11-16T04:53:20.681Z,-0.10
2017-11-16T04:55:48.326Z,-0.20
2017-11-16T04:58:16.215Z,-0.10
2017-11-16T05:00:43.854Z,-0.10
2017-11-16T05:03:12.249Z,0.00
2017-11-16T05:05:39.911Z,0.00
2017-11-16T05:08:07.557Z,0.00
2017-11-16T05:10:35.337Z,0.00
2017-11-16T05:13:02.967Z,0.00
2017-11-16T05:15:31.342Z,0.00
2017-11-16T05:17:59.748Z,0.00
2017-11-16T05:20:27.385Z,0.00
2017-11-16T05:22:55.857Z,0.00
2017-11-16T05:25:24.274Z,0.00
2017-11-16T05:27:51.916Z,-0.10
2017-11-16T05:30:19.694Z,-0.10
2017-11-16T05:32:47.374Z,-0.10
2017-11-16T05:35:15.170Z,0.00
2017-11-16T05:37:42.824Z,0.00
2017-11-16T05:40:10.501Z,0.00
2017-11-16T05:42:38.165Z,0.00
2017-11-16T05:45:06.637Z,-0.10
2017-11-16T05:47:35.085Z,0.00
2017-11-16T05:50:02.728Z,-0.10
2017-11-16T05:52:30.364Z,0.00
2017-11-16T05:54:58.037Z,0.10
2017-11-16T05:57:25.662Z,0.10
2017-11-16T05:59:54.121Z,0.10
2017-11-16T06:02:22.780Z,0.10
2017-11-16T06:04:50.477Z,0.10
2017-11-16T06:07:18.136Z,0.10
2017-11-16T06:09:45.753Z,0.10
2017-11-16T06:12:13.445Z,0.10
2017-11-16T06:14:41.089Z,0.00
2017-11-16T06:17:08.775Z,0.10
2017-11-16T06:19:36.440Z,0.10
2017-11-16T06:22:04.830Z,-0.10
2017-11-16T06:24:33.293Z,-0.20
2017-11-16T06:27:00.941Z,-0.20
2017-11-16T06:29:28.645Z,-0.10
2017-11-16T06:31:56.292Z,-0.10
2017-11-16T06:34:23.952Z,-0.20
2017-11-16T06:36:52.357Z,-0.20
2017-11-16T06:39:20.049Z,-0.20
2017-11-16T06:41:47.816Z,-0.10
2017-11-16T06:44:15.458Z,-0.10
2017-11-16T06:46:43.400Z,-0.20
2017-11-16T06:49:11.037Z,-0.10
2017-11-16T06:51:39.429Z,-0.20
2017-11-16T06:54:07.631Z,-0.20
2017-11-16T06:56:35.926Z,-0.30
2017-11-16T06:59:06.069Z,-0.20
2017-11-16T07:01:35.012Z,-0.20
2017-11-16T07:04:02.633Z,-0.20
2017-11-16T07:06:31.070Z,-0.10
2017-11-16T07:08:58.698Z,-0.10
2017-11-16T07:11:26.323Z,-0.10
2017-11-16T07:13:55.251Z,-0.20
2017-11-16T07:16:23.870Z,-0.20
2017-11-16T07:18:51.507Z,-0.20
2017-11-16T07:21:19.181Z,-0.10
2017-11-16T07:23:46.822Z,-0.10
2017-11-16T07:26:14.505Z,-0.20
2017-11-16T07:28:42.119Z,-0.20
2017-11-16T07:31:09.771Z,-0.20
2017-11-16T07:33:37.425Z,-0.20
2017-11-16T07:36:05.069Z,-0.20
2017-11-16T07:38:33.604Z,-0.20
2017-11-16T07:41:01.297Z,-0.20
2017-11-16T07:43:28.970Z,-0.30
2017-11-16T07:45:57.436Z,-0.20
2017-11-16T07:48:25.094Z,-0.20
2017-11-16T07:50:53.054Z,-0.10
2017-11-16T07:53:20.960Z,-0.10
2017-11-16T07:55:49.381Z,-0.10
2017-11-16T07:58:17.107Z,-0.20
2017-11-16T08:00:44.753Z,-0.10
2017-11-16T08:03:13.187Z,-0.10
2017-11-16T08:05:40.827Z,-0.10
2017-11-16T08:08:08.489Z,0.00
2017-11-16T08:10:36.150Z,0.00
2017-11-16T08:13:03.777Z,0.00
2017-11-16T08:15:32.249Z,0.00
2017-11-16T08:18:00.651Z,0.10
2017-11-16T08:20:28.319Z,0.10
2017-11-16T08:22:55.984Z,0.00
2017-11-16T08:25:23.631Z,0.00
2017-11-16T08:27:51.312Z,0.00
2017-11-16T08:30:18.924Z,0.00
2017-11-16T08:32:46.573Z,0.00
2017-11-16T08:35:14.269Z,-0.10
2017-11-16T08:37:41.913Z,0.00
2017-11-16T08:40:10.353Z,0.00
2017-11-16T08:42:38.046Z,-0.10
2017-11-16T08:45:06.476Z,0.00
2017-11-16T08:47:34.252Z,0.00
2017-11-16T08:50:02.054Z,0.00
2017-11-16T08:52:30.565Z,0.20
2017-11-16T08:54:58.271Z,0.20
2017-11-16T08:57:25.999Z,0.20
2017-11-16T08:59:53.720Z,0.20
2017-11-16T09:02:22.152Z,0.20
2017-11-16T09:04:50.000Z,0.20
2017-11-16T09:07:17.766Z,0.30
2017-11-16T09:09:45.432Z,0.20
2017-11-16T09:12:13.165Z,0.30
2017-11-16T09:14:40.851Z,0.40
2017-11-16T09:17:09.549Z,0.40
2017-11-16T09:19:37.200Z,0.30
2017-11-16T09:22:04.950Z,0.40
2017-11-16T09:24:32.689Z,0.30
2017-11-16T09:27:00.376Z,0.30
2017-11-16T09:29:28.103Z,0.40
2017-11-16T09:31:56.545Z,0.40
2017-11-16T09:34:24.426Z,0.40
2017-11-16T09:36:52.093Z,0.50
2017-11-16T09:39:20.508Z,0.40
2017-11-16T09:41:48.189Z,0.40
2017-11-16T09:44:15.877Z,0.40
2017-11-16T09:46:43.582Z,0.50
2017-11-16T09:49:11.215Z,0.60
2017-11-16T09:51:39.597Z,0.70
2017-11-16T09:54:08.009Z,0.60
2017-11-16T09:56:35.673Z,0.60
2017-11-16T09:59:03.394Z,0.70
2017-11-16T10:01:31.786Z,0.60
2017-11-16T10:03:59.404Z,0.60
2017-11-16T10:06:27.093Z,0.60
2017-11-16T10:08:54.723Z,0.50
2017-11-16T10:11:22.364Z,0.40
2017-11-16T10:13:50.001Z,0.50
2017-11-16T10:16:18.403Z,0.50
2017-11-16T10:18:46.028Z,0.50
2017-11-16T10:21:13.664Z,0.50
2017-11-16T10:23:42.094Z,0.50
2017-11-16T10:26:09.722Z,0.50
2017-11-16T10:28:37.429Z,0.50
2017-11-16T10:31:05.089Z,0.50
2017-11-16T10:33:32.747Z,0.60
2017-11-16T10:36:00.418Z,0.50
2017-11-16T10:38:28.106Z,0.50
2017-11-16T10:40:56.541Z,0.50
2017-11-16T10:43:24.214Z,0.60
2017-11-16T10:45:51.888Z,0.60
2017-11-16T10:48:19.616Z,0.60
2017-11-16T10:50:47.355Z,0.60
2017-11-16T10:53:15.008Z,0.70
2017-11-16T10:55:42.705Z,0.70
2017-11-16T10:58:10.389Z,0.70
2017-11-16T11:00:38.068Z,0.70
2017-11-16T11:03:06.540Z,0.80
2017-11-16T11:05:34.194Z,0.80
2017-11-16T11:08:01.838Z,0.80
2017-11-16T11:10:29.502Z,0.70
2017-11-16T11:12:57.121Z,0.70
2017-11-16T11:15:25.549Z,0.80
2017-11-16T11:17:53.189Z,0.80
2017-11-16T11:20:20.891Z,0.90
2017-11-16T11:22:49.280Z,1.00
2017-11-16T11:25:16.944Z,1.00
2017-11-16T11:27:44.605Z,1.00
2017-11-16T11:32:36.449Z,1.00
2017-11-16T11:35:04.114Z,1.00
2017-11-16T11:37:31.801Z,0.90
2017-11-16T11:39:59.476Z,1.00
2017-11-16T11:42:27.150Z,0.90
2017-11-16T11:44:54.813Z,1.00
2017-11-16T11:47:22.445Z,1.00
2017-11-16T11:49:50.200Z,1.00
2017-11-16T11:52:17.844Z,1.10
2017-11-16T11:54:45.458Z,1.00
2017-11-16T11:57:13.124Z,1.00
2017-11-16T11:59:41.520Z,1.10
2017-11-16T12:02:09.217Z,1.10
2017-11-16T12:04:36.892Z,1.10
2017-11-16T12:07:04.638Z,1.10
2017-11-16T12:09:32.306Z,1.10
2017-11-16T12:11:59.929Z,1.10
2017-11-16T12:14:27.625Z,1.10
2017-11-16T12:16:55.276Z,1.10
2017-11-16T12:19:22.925Z,1.20
2017-11-16T12:21:50.586Z,1.20
2017-11-16T12:24:18.224Z,1.20
2017-11-16T12:26:45.977Z,1.20
2017-11-16T12:29:14.436Z,1.10
2017-11-16T12:31:42.134Z,1.10
2017-11-16T12:34:09.874Z,1.10
2017-11-16T12:36:38.345Z,1.10
2017-11-16T12:39:07.594Z,1.10
2017-11-16T12:41:35.293Z,1.10
2017-11-16T12:44:02.994Z,1.20
2017-11-16T12:46:30.709Z,1.20
2017-11-16T12:48:58.430Z,1.20
2017-11-16T12:51:26.143Z,1.20
2017-11-16T12:53:53.825Z,1.10
2017-11-16T12:56:22.318Z,1.00
2017-11-16T12:58:50.024Z,1.00
2017-11-16T13:01:17.681Z,1.00
2017-11-16T13:03:45.373Z,1.00
2017-11-16T13:06:13.777Z,1.10
2017-11-16T13:08:41.449Z,1.00
2017-11-16T13:11:09.209Z,1.10
2017-11-16T13:13:36.828Z,1.10
2017-11-16T13:16:04.951Z,1.20
2017-11-16T13:18:32.633Z,1.10
2017-11-16T13:21:00.262Z,1.10
2017-11-16T13:23:27.922Z,1.10
2017-11-16T13:25:55.549Z,1.00
2017-11-16T13:28:23.973Z,1.00
2017-11-16T13:30:51.606Z,1.00
2017-11-16T13:33:19.268Z,0.90
2017-11-16T13:35:46.901Z,0.80
2017-11-16T13:38:14.625Z,0.90
2017-11-16T13:40:42.237Z,0.90
2017-11-16T13:43:10.623Z,0.90
2017-11-16T13:45:38.279Z,0.90
2017-11-16T13:48:06.688Z,0.90
2017-11-16T13:50:34.368Z,0.90
2017-11-16T13:53:02.015Z,0.90
2017-11-16T13:55:29.633Z,0.90
2017-11-16T13:57:58.077Z,1.00
2017-11-16T14:00:25.748Z,1.00
2017-11-16T14:02:53.495Z,0.90
2017-11-16T14:05:21.129Z,0.90
2017-11-16T14:07:48.745Z,1.00
2017-11-16T14:10:17.222Z,0.90
2017-11-16T14:12:45.628Z,1.00
2017-11-16T14:15:13.298Z,1.00
2017-11-16T14:17:40.977Z,1.00
2017-11-16T14:20:08.615Z,1.00
2017-11-16T14:22:36.266Z,1.10
2017-11-16T14:25:03.884Z,1.10
2017-11-16T14:27:31.574Z,1.10
2017-11-16T14:29:59.214Z,1.20
2017-11-16T14:32:27.737Z,1.10
2017-11-16T14:34:55.361Z,1.10
2017-11-16T14:37:23.752Z,1.00
2017-11-16T14:39:51.425Z,1.00
2017-11-16T14:42:19.066Z,0.90
2017-11-16T14:44:46.922Z,0.90
2017-11-16T14:47:15.389Z,0.90
2017-11-16T14:49:43.028Z,0.90
2017-11-16T14:52:10.689Z,0.90
2017-11-16T14:54:38.337Z,0.90
2017-11-16T14:57:06.136Z,0.80
2017-11-16T14:59:33.760Z,0.70
2017-11-16T15:02:01.403Z,0.70
2017-11-16T15:04:29.125Z,0.80
2017-11-16T15:06:57.508Z,0.80
2017-11-16T15:09:26.018Z,0.80
2017-11-16T15:11:53.641Z,0.80
2017-11-16T15:14:22.045Z,0.80
2017-11-16T15:16:49.705Z,0.80
2017-11-16T15:19:17.334Z,0.80
2017-11-16T15:21:45.785Z,0.80
2017-11-16T15:24:13.402Z,0.80
2017-11-16T15:26:41.069Z,0.80
2017-11-16T15:29:08.738Z,0.80
2017-11-16T15:31:36.361Z,0.80
2017-11-16T15:34:04.808Z,0.80
2017-11-16T15:36:32.597Z,0.80
2017-11-16T15:39:01.024Z,0.70
2017-11-16T15:41:28.649Z,0.70
2017-11-16T15:43:57.044Z,0.80
2017-11-16T15:46:24.708Z,0.80
2017-11-16T15:48:52.347Z,0.80
2017-11-16T15:51:20.819Z,0.80
2017-11-16T15:53:49.214Z,0.70
2017-11-16T15:56:16.849Z,0.70
2017-11-16T15:58:45.283Z,0.80
2017-11-16T16:01:12.925Z,0.80
2017-11-16T16:03:40.680Z,0.90
2017-11-16T16:06:08.328Z,0.80
2017-11-16T16:08:35.947Z,0.90
2017-11-16T16:11:03.667Z,0.90
2017-11-16T16:13:31.305Z,0.90
2017-11-16T16:15:59.105Z,0.90
2017-11-16T16:18:26.720Z,1.00
2017-11-16T16:20:55.148Z,1.00
2017-11-16T16:23:22.813Z,1.00
2017-11-16T16:25:50.462Z,1.00
2017-11-16T16:28:18.155Z,1.00
2017-11-16T16:30:45.794Z,0.90
2017-11-16T16:33:13.487Z,1.00
2017-11-16T16:35:41.934Z,0.90
2017-11-16T16:38:09.791Z,0.90
2017-11-16T16:40:37.460Z,0.90
2017-11-16T16:43:05.089Z,0.80
2017-11-16T16:45:33.517Z,0.80
2017-11-16T16:48:01.153Z,0.80
2017-11-16T16:50:28.815Z,0.80
2017-11-16T16:52:56.520Z,0.90
2017-11-16T16:55:24.985Z,0.90
2017-11-16T16:57:52.620Z,0.80
2017-11-16T17:00:20.249Z,0.80
2017-11-16T17:02:47.901Z,0.80
2017-11-16T17:05:15.527Z,0.90
2017-11-16T17:07:44.077Z,0.90
2017-11-16T17:10:11.709Z,0.90
2017-11-16T17:12:39.394Z,0.80
2017-11-16T17:15:07.080Z,0.80
2017-11-16T17:17:34.719Z,0.80
2017-11-16T17:20:02.428Z,0.80
2017-11-16T17:22:30.060Z,0.80
2017-11-16T17:24:57.821Z,0.80
2017-11-16T17:27:25.505Z,0.90
2017-11-16T17:29:53.169Z,0.80
2017-11-16T17:32:20.849Z,0.90
2017-11-16T17:34:48.471Z,0.80
2017-11-16T17:37:16.925Z,0.80
2017-11-16T17:39:44.557Z,0.80
2017-11-16T17:42:12.189Z,0.90
2017-11-16T17:44:40.613Z,0.90
2017-11-16T17:47:08.237Z,0.90
2017-11-16T17:49:35.928Z,0.90
2017-11-16T17:52:03.560Z,0.80
2017-11-16T17:54:31.251Z,0.90
2017-11-16T17:56:58.913Z,0.80
2017-11-16T17:59:26.588Z,0.90
2017-11-16T18:01:54.229Z,0.90
2017-11-16T18:04:21.866Z,0.90
2017-11-16T18:06:49.617Z,0.90
2017-11-16T18:09:17.226Z,0.90
2017-11-16T18:11:44.919Z,0.80
2017-11-16T18:14:13.302Z,0.70
2017-11-16T18:16:41.688Z,0.70
2017-11-16T18:19:09.333Z,0.70
2017-11-16T18:21:36.962Z,0.70
2017-11-16T18:24:04.683Z,0.80
2017-11-16T18:26:32.300Z,0.80
2017-11-16T18:28:59.912Z,0.90
2017-11-16T18:31:31.034Z,0.90
2017-11-16T18:33:58.986Z,0.90
2017-11-16T18:36:27.356Z,0.80
2017-11-16T18:38:56.312Z,0.90
2017-11-16T18:41:26.622Z,1.00
2017-11-16T18:46:42.697Z,0.90
2017-11-16T18:49:11.517Z,0.90
2017-11-16T18:51:40.046Z,0.90
2017-11-16T18:54:09.629Z,0.90
2017-11-16T18:56:38.085Z,1.00
2017-11-16T18:59:05.700Z,1.00
2017-11-16T19:01:33.473Z,1.10
2017-11-16T19:04:01.309Z,1.10
2017-11-16T19:06:29.846Z,1.00
2017-11-16T19:08:57.654Z,1.00
2017-11-16T19:11:26.384Z,1.00
2017-11-16T19:13:54.193Z,1.00
2017-11-16T19:16:21.924Z,1.00
2017-11-16T19:18:49.764Z,1.10
2017-11-16T19:21:17.669Z,1.00
2017-11-16T19:23:45.424Z,1.00
2017-11-16T19:26:13.100Z,1.10
2017-11-16T19:28:41.574Z,1.00
2017-11-16T19:31:10.101Z,1.00
2017-11-16T19:33:37.851Z,1.00
2017-11-16T19:36:05.642Z,1.00
2017-11-16T19:38:34.191Z,1.00
2017-11-16T19:41:02.592Z,1.10
2017-11-16T19:43:30.321Z,1.00
2017-11-16T19:45:58.750Z,1.00
2017-11-16T19:48:26.504Z,1.00
2017-11-16T19:50:54.401Z,1.00
2017-11-16T19:53:22.073Z,1.00
2017-11-16T19:55:49.884Z,1.00
2017-11-16T19:58:17.718Z,1.00
2017-11-16T20:00:46.274Z,1.00
2017-11-16T20:03:14.125Z,0.90
2017-11-16T20:05:42.025Z,1.00
2017-11-16T20:08:10.663Z,0.90
2017-11-16T20:10:38.434Z,0.90
2017-11-16T20:13:06.186Z,0.90
2017-11-16T20:15:34.120Z,0.90
2017-11-16T20:18:01.937Z,0.90
2017-11-16T20:20:29.823Z,0.90
2017-11-16T20:22:57.702Z,0.90
2017-11-16T20:25:25.639Z,0.90
2017-11-16T20:27:53.520Z,0.90
2017-11-16T20:30:21.335Z,0.90
2017-11-16T20:32:51.100Z,0.90
2017-11-16T20:35:19.534Z,0.90
2017-11-16T20:41:06.205Z,0.90
2017-11-16T20:43:40.445Z,0.90
2017-11-16T20:46:13.697Z,0.90
2017-11-16T20:51:43.635Z,0.90
2017-11-16T20:54:14.754Z,0.90
2017-11-16T20:56:42.553Z,0.90
2017-11-16T20:59:11.195Z,0.90
2017-11-16T21:01:39.101Z,0.90
2017-11-16T21:04:07.589Z,0.90
2017-11-16T21:06:35.370Z,0.90
2017-11-16T21:09:03.186Z,0.90
2017-11-16T21:11:30.868Z,0.90
2017-11-16T21:13:58.490Z,0.90
2017-11-16T21:16:26.132Z,0.90
2017-11-16T21:18:53.782Z,0.90
2017-11-16T21:21:21.434Z,0.90
2017-11-16T21:23:49.695Z,0.90
2017-11-16T21:26:17.316Z,0.90
2017-11-16T21:28:44.945Z,0.90
2017-11-16T21:31:12.921Z,0.80
2017-11-16T21:33:40.587Z,0.80
2017-11-16T21:36:08.549Z,0.70
2017-11-16T21:38:37.048Z,0.70
2017-11-16T21:41:04.836Z,0.60
2017-11-16T21:43:32.524Z,0.70
2017-11-16T21:46:00.403Z,0.60
2017-11-16T21:48:28.025Z,0.60
2017-11-16T21:50:56.406Z,0.60
2017-11-16T21:53:24.108Z,0.60
2017-11-16T21:55:51.722Z,0.60
2017-11-16T21:58:20.145Z,0.70
2017-11-16T22:00:47.971Z,0.70
2017-11-16T22:03:15.765Z,0.80
2017-11-16T22:05:43.678Z,0.70
2017-11-16T22:08:12.236Z,0.70
2017-11-16T22:10:40.150Z,0.70
2017-11-16T22:13:08.005Z,0.60
2017-11-16T22:15:35.814Z,0.70
2017-11-16T22:18:03.908Z,0.70
2017-11-16T22:20:31.533Z,0.70
2017-11-16T22:22:59.195Z,0.70
2017-11-16T22:25:26.811Z,0.80
2017-11-16T22:27:55.249Z,0.70
2017-11-16T22:30:22.881Z,0.70
2017-11-16T22:32:50.501Z,0.70
2017-11-16T22:35:18.932Z,0.80
2017-11-16T22:37:46.569Z,0.80
2017-11-16T22:40:14.424Z,0.80
2017-11-16T22:42:42.046Z,0.80
2017-11-16T22:45:09.660Z,0.80
2017-11-16T22:47:37.315Z,0.80
2017-11-16T22:50:04.943Z,0.80
2017-11-16T22:52:33.389Z,0.80
2017-11-16T22:55:01.072Z,0.80
2017-11-16T22:57:28.692Z,0.80
2017-11-16T22:59:56.359Z,0.80
2017-11-16T23:02:23.977Z,0.80
2017-11-16T23:04:51.672Z,0.80
2017-11-16T23:07:19.284Z,0.90
2017-11-16T23:09:47.688Z,0.80
2017-11-16T23:12:15.344Z,0.80
2017-11-16T23:14:42.963Z,0.80
2017-11-16T23:17:10.620Z,0.80
2017-11-16T23:19:38.260Z,0.70
2017-11-16T23:22:05.929Z,0.70
2017-11-16T23:24:33.560Z,0.80
2017-11-16T23:27:01.192Z,0.70
2017-11-16T23:29:28.829Z,0.70
2017-11-16T23:31:57.224Z,0.90
2017-11-16T23:34:24.884Z,0.90
2017-11-16T23:36:53.253Z,0.90
2017-11-16T23:39:21.676Z,0.90
2017-11-16T23:41:49.321Z,0.90
2017-11-16T23:44:16.940Z,0.90
2017-11-16T23:46:45.385Z,0.90
2017-11-16T23:49:13.020Z,0.90
2017-11-16T23:51:40.640Z,0.90
2017-11-16T23:54:09.063Z,0.80
2017-11-16T23:56:36.704Z,0.80
2017-11-16T23:59:04.379Z,0.80
